Time;durP1;ratioP1;P1;durP2;ratioP2;P2;SDS_P1;SDS_P2;PMS_P1;PMS_P2;Temp;Humidity;BMP_temperature;BMP_pressure;BME280_temperature;BME280_humidity;BME280_pressure;Samples;Min_cycle;Max_cycle;Signal;HPM_P1;HPM_P2
2021/12/28 00:01:16;;;;;;;204.48;149.87;;;19.90;47.20;;;;;;4363286;60;21552;-31
2021/12/28 00:06:18;;;;;;;201.95;150.75;;;19.90;47.20;;;;;;4344426;60;21120;-35
2021/12/28 00:11:18;;;;;;;201.65;150.05;;;19.90;47.20;;;;;;4371666;60;21067;-35
2021/12/28 00:16:31;;;;;;;201.77;146.43;;;19.90;47.30;;;;;;4373191;60;21594;-36
2021/12/28 00:21:32;;;;;;;204.02;150.87;;;19.90;47.10;;;;;;4347996;60;21669;-35
2021/12/28 00:26:33;;;;;;;200.68;147.52;;;19.90;47.20;;;;;;4338970;64;21100;-34
2021/12/28 00:31:34;;;;;;;201.90;148.85;;;19.90;47.00;;;;;;4358889;60;21542;-33
2021/12/28 00:36:34;;;;;;;190.62;145.18;;;19.90;47.00;;;;;;4356877;60;21048;-36
2021/12/28 00:41:35;;;;;;;192.80;145.95;;;19.90;47.10;;;;;;4338531;64;21623;-35
2021/12/28 00:46:36;;;;;;;194.65;146.02;;;19.80;46.90;;;;;;4358760;60;21590;-35
2021/12/28 00:51:39;;;;;;;200.00;147.70;;;19.80;46.90;;;;;;4359719;60;21100;-37
2021/12/28 00:56:40;;;;;;;193.07;145.18;;;19.90;46.90;;;;;;4370029;60;21043;-36
2021/12/28 01:01:41;;;;;;;194.62;141.88;;;19.80;46.90;;;;;;4339324;64;21562;-35
2021/12/28 01:06:41;;;;;;;191.00;143.90;;;19.90;46.90;;;;;;4373175;60;21055;-35
2021/12/28 01:11:45;;;;;;;192.48;143.25;;;19.80;46.70;;;;;;4371449;60;21121;-34
2021/12/28 01:16:46;;;;;;;190.43;141.60;;;19.80;47.20;;;;;;4352858;60;21179;-35
2021/12/28 01:21:47;;;;;;;188.55;139.27;;;19.80;46.80;;;;;;4338357;61;21094;-35
2021/12/28 01:26:48;;;;;;;186.48;139.02;;;19.80;46.70;;;;;;4339680;60;21556;-34
2021/12/28 01:31:49;;;;;;;180.63;134.60;;;19.80;46.60;;;;;;4367659;60;21549;-36
2021/12/28 01:36:51;;;;;;;180.40;133.93;;;19.80;46.60;;;;;;4355500;60;21067;-34
2021/12/28 01:41:52;;;;;;;188.23;138.00;;;19.80;46.60;;;;;;4355577;60;21076;-33
2021/12/28 01:46:52;;;;;;;179.25;135.63;;;19.80;46.60;;;;;;4339142;64;21113;-35
2021/12/28 01:51:53;;;;;;;174.90;131.82;;;19.80;46.60;;;;;;4346198;60;21047;-35
2021/12/28 01:56:54;;;;;;;177.43;131.93;;;19.80;46.50;;;;;;4339238;64;21625;-34
2021/12/28 02:01:56;;;;;;;178.05;132.57;;;19.80;46.60;;;;;;4374202;60;21076;-37
2021/12/28 02:06:58;;;;;;;169.02;127.53;;;19.80;46.50;;;;;;4380883;60;21537;-36
2021/12/28 02:11:59;;;;;;;170.02;127.68;;;19.80;46.50;;;;;;4363940;60;21425;-35
2021/12/28 02:17:00;;;;;;;164.60;123.70;;;19.80;46.50;;;;;;4368658;60;21048;-36
2021/12/28 02:22:01;;;;;;;168.48;126.45;;;19.80;46.50;;;;;;4338973;60;21087;-34
2021/12/28 02:27:02;;;;;;;166.00;126.78;;;19.80;46.50;;;;;;4341405;60;21633;-34
2021/12/28 02:32:03;;;;;;;163.68;124.30;;;19.80;46.40;;;;;;4351706;60;21097;-38
2021/12/28 02:37:04;;;;;;;160.60;122.13;;;19.80;46.40;;;;;;4344083;60;21030;-36
2021/12/28 02:42:06;;;;;;;162.40;122.22;;;19.80;46.40;;;;;;4353727;60;21104;-35
2021/12/28 02:47:07;;;;;;;160.55;121.72;;;19.80;46.50;;;;;;4369189;60;21032;-35
2021/12/28 02:52:09;;;;;;;158.00;120.20;;;19.80;46.40;;;;;;4355281;60;21510;-35
2021/12/28 02:57:10;;;;;;;143.68;107.75;;;19.80;46.30;;;;;;4353196;60;22117;-32
2021/12/28 03:02:11;;;;;;;152.15;114.35;;;19.80;47.00;;;;;;4338166;64;21080;-36
2021/12/28 03:07:12;;;;;;;151.35;114.32;;;19.80;46.40;;;;;;4339673;60;22403;-34
2021/12/28 03:12:13;;;;;;;150.85;116.53;;;19.80;46.30;;;;;;4355232;60;21586;-34
2021/12/28 03:17:14;;;;;;;152.60;116.90;;;19.80;46.30;;;;;;4349323;60;21569;-36
2021/12/28 03:22:15;;;;;;;147.68;110.22;;;19.80;46.30;;;;;;4338787;64;21577;-34
2021/12/28 03:27:16;;;;;;;148.48;113.22;;;19.80;46.20;;;;;;4339142;64;21051;-34
2021/12/28 03:32:16;;;;;;;143.87;109.32;;;19.80;46.20;;;;;;4354987;60;21510;-33
2021/12/28 03:37:19;;;;;;;140.50;110.00;;;19.80;46.20;;;;;;4422518;60;21100;-33
2021/12/28 03:42:20;;;;;;;142.60;107.22;;;19.80;46.10;;;;;;4356657;60;21060;-33
2021/12/28 03:47:20;;;;;;;139.43;106.37;;;19.80;46.10;;;;;;4375953;60;21059;-33
2021/12/28 03:52:21;;;;;;;131.55;101.55;;;19.80;46.20;;;;;;4350920;60;21060;-34
2021/12/28 03:57:22;;;;;;;136.62;107.12;;;19.80;46.10;;;;;;4342324;60;21048;-33
2021/12/28 04:02:23;;;;;;;126.82;96.28;;;19.80;46.10;;;;;;4338262;64;21063;-33
2021/12/28 04:07:24;;;;;;;129.27;99.90;;;19.80;46.20;;;;;;4344506;60;21055;-34
2021/12/28 04:12:25;;;;;;;131.77;101.07;;;19.80;46.20;;;;;;4357213;60;21091;-32
2021/12/28 04:17:27;;;;;;;129.32;98.87;;;19.80;46.30;;;;;;4388128;60;21083;-33
2021/12/28 04:22:28;;;;;;;129.85;100.90;;;19.80;45.90;;;;;;4404578;60;21151;-29
2021/12/28 04:27:29;;;;;;;125.80;96.03;;;19.80;45.90;;;;;;4348153;60;21549;-33
2021/12/28 04:32:30;;;;;;;127.38;98.10;;;19.80;45.90;;;;;;4355002;60;21534;-34
2021/12/28 04:37:31;;;;;;;122.20;94.75;;;19.80;45.90;;;;;;4356702;60;21047;-32
2021/12/28 04:42:32;;;;;;;114.28;88.47;;;19.80;45.90;;;;;;4355319;60;21142;-34
2021/12/28 04:47:34;;;;;;;115.80;90.07;;;19.80;45.90;;;;;;4365601;60;21119;-35
2021/12/28 04:52:37;;;;;;;115.18;88.57;;;19.80;45.90;;;;;;4355489;60;21166;-30
2021/12/28 04:57:39;;;;;;;114.82;89.40;;;19.80;45.90;;;;;;4352858;60;21537;-34
2021/12/28 05:02:40;;;;;;;115.88;89.90;;;19.80;45.90;;;;;;4348097;60;21087;-34
2021/12/28 05:07:41;;;;;;;114.15;88.40;;;19.80;45.90;;;;;;4338660;64;21080;-32
2021/12/28 05:12:43;;;;;;;116.30;88.30;;;19.80;45.90;;;;;;4352900;60;21588;-34
2021/12/28 05:17:44;;;;;;;111.75;85.97;;;19.80;45.90;;;;;;4351622;60;21550;-35
2021/12/28 05:22:45;;;;;;;115.15;89.03;;;19.70;45.90;;;;;;4338457;61;21169;-36
2021/12/28 05:27:46;;;;;;;103.55;80.30;;;19.80;46.00;;;;;;4338858;64;21510;-34
2021/12/28 05:32:47;;;;;;;108.68;83.53;;;19.80;46.00;;;;;;4339033;64;21608;-33
2021/12/28 05:37:48;;;;;;;105.43;80.50;;;19.70;46.00;;;;;;4360104;60;21188;-34
2021/12/28 05:42:49;;;;;;;103.78;79.97;;;19.80;46.10;;;;;;4375133;60;21096;-35
2021/12/28 05:47:50;;;;;;;106.30;81.90;;;19.80;46.10;;;;;;4347199;60;21609;-35
2021/12/28 05:52:51;;;;;;;105.90;83.47;;;19.80;46.10;;;;;;4339010;61;21059;-35
2021/12/28 05:57:52;;;;;;;98.37;76.57;;;19.70;46.20;;;;;;4341552;60;21634;-36
2021/12/28 06:02:53;;;;;;;101.43;76.25;;;19.80;46.30;;;;;;4365667;60;21111;-37
2021/12/28 06:07:53;;;;;;;101.70;76.80;;;19.80;46.40;;;;;;4340018;60;21104;-35
2021/12/28 06:12:54;;;;;;;97.25;74.72;;;19.70;46.40;;;;;;4342722;60;21518;-34
2021/12/28 06:17:55;;;;;;;97.93;77.18;;;19.70;46.40;;;;;;4341704;60;21922;-36
2021/12/28 06:22:56;;;;;;;98.32;75.32;;;19.80;46.50;;;;;;4340394;60;21078;-34
2021/12/28 06:27:57;;;;;;;94.28;73.43;;;19.70;46.50;;;;;;4343169;60;21106;-32
2021/12/28 06:32:59;;;;;;;94.43;74.00;;;19.70;46.50;;;;;;4339057;64;21579;-34
2021/12/28 06:38:00;;;;;;;92.12;73.00;;;19.70;46.50;;;;;;4341132;60;21522;-35
2021/12/28 06:43:01;;;;;;;88.72;68.72;;;19.70;46.50;;;;;;4342598;60;21120;-34
2021/12/28 06:48:03;;;;;;;89.75;70.75;;;19.80;46.50;;;;;;4348703;60;21545;-33
2021/12/28 06:53:03;;;;;;;90.35;70.25;;;19.70;46.40;;;;;;4340033;60;21092;-36
2021/12/28 06:58:05;;;;;;;89.43;68.93;;;19.70;46.40;;;;;;4349523;60;21581;-33
2021/12/28 07:03:06;;;;;;;88.95;69.80;;;19.70;46.40;;;;;;4363346;60;21055;-35
2021/12/28 07:08:07;;;;;;;91.35;72.12;;;19.70;46.40;;;;;;4339019;61;21598;-36
2021/12/28 07:13:08;;;;;;;91.10;70.85;;;19.70;46.40;;;;;;4342588;60;21091;-34
2021/12/28 07:18:09;;;;;;;87.80;67.28;;;19.70;46.30;;;;;;4353731;60;21561;-34
2021/12/28 07:23:10;;;;;;;88.20;70.03;;;19.80;46.40;;;;;;4338572;60;21075;-35
2021/12/28 07:28:12;;;;;;;86.22;67.55;;;19.70;46.30;;;;;;4339704;64;21119;-36
2021/12/28 07:33:13;;;;;;;87.07;68.95;;;19.70;46.30;;;;;;4339471;64;21060;-34
2021/12/28 07:38:14;;;;;;;89.25;69.47;;;19.70;46.40;;;;;;4338811;60;21092;-35
2021/12/28 07:43:15;;;;;;;88.00;68.25;;;19.80;46.40;;;;;;4367562;60;21136;-37
2021/12/28 07:48:16;;;;;;;86.07;66.87;;;19.70;46.30;;;;;;4346252;60;21100;-34
2021/12/28 07:53:17;;;;;;;85.20;67.75;;;19.80;46.40;;;;;;4342385;60;21088;-32
2021/12/28 07:58:18;;;;;;;85.47;66.82;;;19.70;46.30;;;;;;4342506;60;21087;-34
2021/12/28 08:03:19;;;;;;;87.00;67.47;;;19.80;46.40;;;;;;4361312;60;21067;-35
2021/12/28 08:08:20;;;;;;;84.32;67.28;;;19.80;46.40;;;;;;4352758;60;21513;-34
2021/12/28 08:13:22;;;;;;;92.00;71.18;;;19.80;46.40;;;;;;4354846;60;21115;-33
2021/12/28 08:18:23;;;;;;;85.75;67.00;;;19.90;46.60;;;;;;4338774;64;22094;-34
2021/12/28 08:23:24;;;;;;;88.05;68.57;;;20.00;47.00;;;;;;4341791;60;21150;-33
2021/12/28 08:28:25;;;;;;;87.07;66.78;;;20.00;47.30;;;;;;4346038;60;21040;-35
2021/12/28 08:33:26;;;;;;;88.75;67.97;;;20.10;47.50;;;;;;4344234;60;21080;-35
2021/12/28 08:38:27;;;;;;;86.53;66.97;;;20.10;47.80;;;;;;4343404;60;21060;-33
2021/12/28 08:43:28;;;;;;;88.45;68.28;;;20.20;48.30;;;;;;4351503;60;21063;-34
2021/12/28 08:48:29;;;;;;;95.70;69.15;;;20.20;48.20;;;;;;4357295;60;21521;-33
2021/12/28 08:53:29;;;;;;;90.47;69.62;;;20.30;48.40;;;;;;4351029;60;21152;-34
2021/12/28 08:58:30;;;;;;;92.35;71.12;;;20.30;48.50;;;;;;4359884;60;21534;-35
2021/12/28 09:03:32;;;;;;;97.57;75.30;;;20.30;48.70;;;;;;4364417;60;21116;-34
2021/12/28 09:08:33;;;;;;;95.55;71.32;;;20.40;48.90;;;;;;4365015;60;21575;-34
2021/12/28 09:13:34;;;;;;;92.18;73.40;;;20.50;49.10;;;;;;4356257;60;21083;-34
2021/12/28 09:18:35;;;;;;;96.60;74.43;;;20.60;49.00;;;;;;4344320;60;21140;-34
2021/12/28 09:23:38;;;;;;;101.38;75.72;;;20.70;48.80;;;;;;4342317;60;21518;-34
2021/12/28 09:28:39;;;;;;;97.25;76.15;;;20.90;48.80;;;;;;4341027;60;21522;-36
2021/12/28 09:33:40;;;;;;;102.05;77.55;;;21.00;48.70;;;;;;4342802;60;21100;-34
2021/12/28 09:38:43;;;;;;;102.03;77.60;;;21.10;48.70;;;;;;4357827;60;21107;-38
2021/12/28 09:43:44;;;;;;;101.45;79.57;;;21.20;48.60;;;;;;4346626;60;21055;-36
2021/12/28 09:48:45;;;;;;;103.35;81.45;;;21.20;48.60;;;;;;4340038;60;21047;-36
2021/12/28 09:53:46;;;;;;;105.65;81.95;;;21.30;48.70;;;;;;4361714;60;21464;-33
2021/12/28 09:58:47;;;;;;;106.10;84.68;;;21.40;48.70;;;;;;4347977;60;21155;-36
2021/12/28 10:03:48;;;;;;;114.65;87.30;;;21.40;48.70;;;;;;4340972;60;21040;-34
2021/12/28 10:09:12;;;;;;;114.90;86.93;;;21.50;48.70;;;;;;4363962;60;21112;-36
2021/12/28 10:14:28;;;;;;;119.62;91.30;;;21.50;48.80;;;;;;4368231;60;21067;-36
2021/12/28 10:19:41;;;;;;;121.13;93.65;;;21.60;48.80;;;;;;4338790;64;21561;-36
2021/12/28 10:24:41;;;;;;;125.25;98.62;;;21.60;48.80;;;;;;4339222;64;21031;-33
2021/12/28 10:29:43;;;;;;;119.55;96.07;;;21.70;48.90;;;;;;4361197;60;21071;-37
2021/12/28 10:34:59;;;;;;;126.18;99.90;;;21.70;48.90;;;;;;4340215;60;21083;-34
2021/12/28 10:40:01;;;;;;;141.27;110.30;;;21.80;48.80;;;;;;4340763;60;21059;-35
2021/12/28 10:45:03;;;;;;;142.93;111.00;;;21.70;48.60;;;;;;4339819;60;21036;-35
2021/12/28 10:51:08;;;;;;;151.12;116.72;;;21.70;48.50;;;;;;4358835;60;21221;-36
2021/12/28 10:56:11;;;;;;;150.90;119.60;;;21.70;48.30;;;;;;4365553;60;21575;-34
2021/12/28 11:01:15;;;;;;;155.35;121.43;;;21.70;48.10;;;;;;4339370;60;21136;-36
2021/12/28 11:06:27;;;;;;;154.90;122.05;;;21.80;48.00;;;;;;4348210;60;21055;-37
2021/12/28 11:11:28;;;;;;;161.80;125.28;;;21.80;47.90;;;;;;4346887;60;21560;-36
2021/12/28 11:16:31;;;;;;;164.93;125.82;;;21.90;48.00;;;;;;4339700;60;21103;-36
2021/12/28 11:21:39;;;;;;;167.55;129.68;;;21.90;48.00;;;;;;4376429;60;21589;-34
2021/12/28 11:26:45;;;;;;;171.32;131.37;;;21.90;48.20;;;;;;4346634;60;21205;-36
2021/12/28 11:31:52;;;;;;;171.10;131.48;;;22.00;48.30;;;;;;4344642;60;21048;-30
2021/12/28 11:36:58;;;;;;;164.02;128.77;;;22.00;48.50;;;;;;4338642;61;21107;-35
2021/12/28 11:42:01;;;;;;;169.07;128.30;;;22.10;48.60;;;;;;4339472;60;21155;-34
2021/12/28 11:47:06;;;;;;;168.55;131.80;;;22.10;48.80;;;;;;4368925;60;21120;-36
2021/12/28 11:52:12;;;;;;;175.55;133.50;;;22.20;48.90;;;;;;4355954;60;21582;-33
2021/12/28 11:57:32;;;;;;;165.48;129.75;;;22.20;49.00;;;;;;4345134;60;21684;-35
2021/12/28 12:02:43;;;;;;;167.50;130.73;;;22.20;49.10;;;;;;4350006;60;21634;-34
2021/12/28 12:07:44;;;;;;;172.48;131.98;;;22.20;49.20;;;;;;4345040;60;21537;-34
2021/12/28 12:12:55;;;;;;;169.62;130.55;;;22.30;49.40;;;;;;4346516;60;21056;-35
2021/12/28 12:18:00;;;;;;;164.48;128.43;;;22.30;49.40;;;;;;4345960;60;21072;-33
2021/12/28 12:24:02;;;;;;;163.45;128.45;;;22.40;49.60;;;;;;4359741;60;21127;-34
2021/12/28 12:29:18;;;;;;;162.90;126.00;;;22.40;49.70;;;;;;4349112;60;21083;-35
2021/12/28 12:34:32;;;;;;;160.40;126.10;;;22.40;49.80;;;;;;4344728;60;21055;-34
2021/12/28 12:39:38;;;;;;;184.07;134.45;;;22.40;49.80;;;;;;4367388;60;21513;-34
2021/12/28 12:44:40;;;;;;;176.70;132.65;;;22.50;49.90;;;;;;4399737;60;21043;-35
2021/12/28 12:49:41;;;;;;;176.23;126.78;;;22.50;49.70;;;;;;4352716;60;21160;-35
2021/12/28 12:54:53;;;;;;;171.60;131.32;;;22.40;49.80;;;;;;4343396;60;21044;-37
2021/12/28 13:00:13;;;;;;;178.00;133.93;;;22.30;49.70;;;;;;4368978;60;21170;-35
2021/12/28 13:05:22;;;;;;;171.85;131.80;;;22.20;49.70;;;;;;4339945;60;21561;-35
2021/12/28 13:10:27;;;;;;;180.80;134.00;;;22.10;49.70;;;;;;4352430;60;21104;-32
2021/12/28 13:15:32;;;;;;;175.00;133.32;;;22.00;49.70;;;;;;4339926;64;21669;-34
2021/12/28 13:20:35;;;;;;;172.40;133.20;;;22.00;49.70;;;;;;4339017;60;21111;-36
2021/12/28 13:25:44;;;;;;;170.65;131.98;;;21.90;49.70;;;;;;4352124;60;21049;-35
2021/12/28 13:30:46;;;;;;;176.05;137.18;;;21.90;49.70;;;;;;4362342;60;21561;-36
2021/12/28 13:35:51;;;;;;;186.95;142.27;;;21.80;49.70;;;;;;4366614;60;21071;-37
2021/12/28 13:40:56;;;;;;;181.77;140.75;;;21.80;49.70;;;;;;4338371;64;21153;-34
2021/12/28 13:46:09;;;;;;;180.50;136.43;;;21.80;49.90;;;;;;4384839;60;21610;-34
2021/12/28 13:51:22;;;;;;;179.95;139.68;;;21.80;50.10;;;;;;4345713;60;21609;-33
2021/12/28 13:56:36;;;;;;;193.20;143.35;;;21.80;50.30;;;;;;4351517;60;21640;-34
2021/12/28 14:01:41;;;;;;;182.73;141.23;;;21.80;50.50;;;;;;4356029;60;21100;-34
2021/12/28 14:06:44;;;;;;;191.98;142.30;;;21.80;50.80;;;;;;4368563;60;21505;-34
2021/12/28 14:11:49;;;;;;;188.40;144.75;;;21.80;51.00;;;;;;4406712;60;21071;-34
2021/12/28 14:17:50;;;;;;;188.93;142.00;;;21.80;51.10;;;;;;4377351;60;21640;-31
2021/12/28 14:22:51;;;;;;;191.57;148.40;;;21.80;51.30;;;;;;4337226;64;21437;-36
2021/12/28 14:27:56;;;;;;;183.87;141.90;;;21.70;51.30;;;;;;4346864;60;21079;-36
2021/12/28 14:32:57;;;;;;;183.35;139.55;;;21.70;51.40;;;;;;4355235;60;21556;-35
2021/12/28 14:38:08;;;;;;;195.15;149.10;;;21.70;51.50;;;;;;4343231;60;21052;-35
2021/12/28 14:43:10;;;;;;;193.45;147.43;;;21.60;51.60;;;;;;4351783;60;21101;-35
2021/12/28 14:48:18;;;;;;;195.15;146.48;;;21.60;51.70;;;;;;4338824;61;21055;-34
2021/12/28 14:53:20;;;;;;;193.60;147.82;;;21.60;51.80;;;;;;4351357;60;21529;-34
2021/12/28 14:58:24;;;;;;;196.00;151.52;;;21.60;51.90;;;;;;4349014;60;21166;-32
2021/12/28 15:03:25;;;;;;;211.30;157.43;;;21.50;51.90;;;;;;4355163;60;21521;-35
2021/12/28 15:08:32;;;;;;;204.95;157.88;;;21.50;51.90;;;;;;4357429;60;21532;-31
2021/12/28 15:13:33;;;;;;;202.60;155.15;;;21.50;51.80;;;;;;4349013;60;21079;-37
2021/12/28 15:18:37;;;;;;;205.65;153.02;;;21.50;51.80;;;;;;4375455;60;21565;-37
2021/12/28 15:23:38;;;;;;;205.35;160.55;;;21.40;51.60;;;;;;4356337;60;21134;-37
2021/12/28 15:28:39;;;;;;;212.43;160.05;;;21.40;51.60;;;;;;4372648;60;21052;-37
2021/12/28 15:33:40;;;;;;;202.10;156.02;;;21.40;51.60;;;;;;4345619;60;21256;-35
2021/12/28 15:38:45;;;;;;;210.07;159.23;;;21.40;51.50;;;;;;4347174;60;21052;-37
2021/12/28 15:43:46;;;;;;;214.57;169.40;;;21.40;51.50;;;;;;4359625;60;21608;-37
2021/12/28 15:48:46;;;;;;;205.55;157.68;;;21.40;51.40;;;;;;4338712;64;21116;-35
2021/12/28 15:53:47;;;;;;;368.90;287.00;;;21.30;51.40;;;;;;4339811;60;21609;-37
2021/12/28 15:58:49;;;;;;;377.98;290.58;;;21.30;49.00;;;;;;4362804;60;21099;-37
2021/12/28 16:03:51;;;;;;;385.17;304.42;;;21.20;48.80;;;;;;4404518;60;21582;-35
2021/12/28 16:08:52;;;;;;;373.35;296.77;;;21.20;49.10;;;;;;4339565;64;21067;-37
2021/12/28 16:13:56;;;;;;;378.92;295.48;;;21.20;49.20;;;;;;4339473;61;21545;-36
2021/12/28 16:18:57;;;;;;;377.87;293.63;;;21.10;49.30;;;;;;4350027;60;21577;-36
2021/12/28 16:23:58;;;;;;;371.75;289.92;;;21.10;49.30;;;;;;4354271;60;21103;-35
2021/12/28 16:28:59;;;;;;;363.10;279.35;;;21.10;49.40;;;;;;4340357;60;21115;-35
2021/12/28 16:34:01;;;;;;;364.42;284.15;;;21.10;49.60;;;;;;4381406;60;21600;-36
2021/12/28 16:39:02;;;;;;;356.27;275.80;;;21.00;49.50;;;;;;4346530;60;21602;-34
2021/12/28 16:44:04;;;;;;;356.90;278.40;;;21.00;49.60;;;;;;4365273;60;21167;-36
2021/12/28 16:49:06;;;;;;;356.13;278.05;;;21.00;49.70;;;;;;4357255;60;21112;-38
2021/12/28 16:54:07;;;;;;;354.87;276.90;;;20.90;49.60;;;;;;4367346;60;21063;-31
2021/12/28 16:59:08;;;;;;;352.33;276.00;;;20.90;49.70;;;;;;4351064;60;21525;-40
2021/12/28 17:04:09;;;;;;;360.48;285.40;;;20.90;49.80;;;;;;4356376;60;21509;-37
2021/12/28 17:09:10;;;;;;;357.05;281.25;;;20.90;49.70;;;;;;4354750;60;21120;-36
2021/12/28 17:14:11;;;;;;;344.58;276.65;;;20.90;49.80;;;;;;4350602;60;21614;-34
2021/12/28 17:19:12;;;;;;;345.23;270.33;;;20.90;49.80;;;;;;4348563;60;21195;-36
2021/12/28 17:24:13;;;;;;;348.98;273.15;;;20.80;49.80;;;;;;4349772;60;21518;-35
2021/12/28 17:29:14;;;;;;;344.58;268.17;;;20.80;49.80;;;;;;4343294;60;21100;-36
2021/12/28 17:34:16;;;;;;;346.83;271.13;;;20.80;49.80;;;;;;4406810;60;21534;-37
2021/12/28 17:39:17;;;;;;;342.27;268.88;;;20.80;49.80;;;;;;4363119;60;21514;-35
2021/12/28 17:44:18;;;;;;;349.42;276.88;;;20.80;49.80;;;;;;4354014;60;21107;-36
2021/12/28 17:49:19;;;;;;;348.90;276.52;;;20.80;49.90;;;;;;4365220;60;21051;-35
2021/12/28 17:54:20;;;;;;;348.60;274.42;;;20.70;49.80;;;;;;4350160;60;21173;-36
2021/12/28 17:59:21;;;;;;;351.08;279.85;;;20.80;49.80;;;;;;4348520;60;21183;-36
2021/12/28 18:04:23;;;;;;;347.77;269.65;;;20.70;49.80;;;;;;4348575;60;21242;-36
2021/12/28 18:09:26;;;;;;;337.02;258.92;;;20.70;49.80;;;;;;4370337;60;21534;-37
2021/12/28 18:14:27;;;;;;;337.98;269.00;;;20.70;49.80;;;;;;4339362;64;21108;-36
2021/12/28 18:19:28;;;;;;;346.33;273.80;;;20.70;49.80;;;;;;4339147;64;21132;-35
2021/12/28 18:24:29;;;;;;;335.45;269.00;;;20.70;49.80;;;;;;4338425;60;21177;-36
2021/12/28 18:29:36;;;;;;;340.62;273.50;;;20.70;49.80;;;;;;4348835;60;21096;-36
2021/12/28 18:34:38;;;;;;;332.33;264.00;;;20.70;49.90;;;;;;4339442;61;21092;-35
2021/12/28 18:39:39;;;;;;;329.75;264.67;;;20.70;49.90;;;;;;4355358;60;21151;-35
2021/12/28 18:44:42;;;;;;;340.15;270.27;;;20.60;49.80;;;;;;4359675;60;21113;-36
2021/12/28 18:49:42;;;;;;;335.27;271.48;;;20.70;49.90;;;;;;4345556;60;21453;-35
2021/12/28 18:54:43;;;;;;;340.52;272.20;;;20.70;49.80;;;;;;4348018;60;21047;-35
2021/12/28 18:59:44;;;;;;;337.00;264.35;;;20.70;49.80;;;;;;4368820;60;21115;-34
2021/12/28 19:04:45;;;;;;;331.73;262.73;;;20.70;49.90;;;;;;4358374;60;21064;-35
2021/12/28 19:09:46;;;;;;;333.60;270.12;;;20.70;50.00;;;;;;4338879;64;21107;-33
2021/12/28 19:14:48;;;;;;;324.92;255.07;;;20.70;50.00;;;;;;4359826;60;21281;-34
2021/12/28 19:19:49;;;;;;;331.65;267.80;;;20.70;49.80;;;;;;4360583;60;21641;-36
2021/12/28 19:24:50;;;;;;;329.67;263.58;;;20.60;49.80;;;;;;4352364;60;21135;-34
2021/12/28 19:29:53;;;;;;;332.10;268.25;;;20.60;49.80;;;;;;4345166;60;21537;-35
2021/12/28 19:34:53;;;;;;;338.80;270.52;;;20.60;49.80;;;;;;4359081;60;21119;-37
2021/12/28 19:39:54;;;;;;;327.90;265.17;;;20.60;49.80;;;;;;4351343;60;21521;-35
2021/12/28 19:44:55;;;;;;;329.55;262.80;;;20.60;49.80;;;;;;4339565;64;21051;-35
2021/12/28 19:49:56;;;;;;;327.55;264.10;;;20.60;49.80;;;;;;4342812;60;21047;-29
2021/12/28 19:54:57;;;;;;;324.15;261.10;;;20.60;49.80;;;;;;4378354;60;21064;-31
2021/12/28 19:59:58;;;;;;;327.42;262.02;;;20.60;49.80;;;;;;4359540;60;21107;-34
2021/12/28 20:04:59;;;;;;;328.30;265.02;;;20.60;49.80;;;;;;4349752;60;21533;-33
2021/12/28 20:10:00;;;;;;;324.15;263.17;;;20.60;49.70;;;;;;4340846;60;21084;-35
2021/12/28 20:15:01;;;;;;;319.85;259.77;;;20.60;49.70;;;;;;4343009;60;21690;-34
2021/12/28 20:20:05;;;;;;;327.23;263.77;;;20.60;49.70;;;;;;4357894;60;21721;-35
2021/12/28 20:25:10;;;;;;;321.10;258.85;;;20.60;49.70;;;;;;4356333;60;21055;-34
2021/12/28 20:30:14;;;;;;;318.08;258.27;;;20.60;49.70;;;;;;4341317;60;21077;-36
2021/12/28 20:35:16;;;;;;;323.62;262.10;;;20.60;49.70;;;;;;4343742;60;21071;-34
2021/12/28 20:40:18;;;;;;;322.98;255.50;;;20.60;49.60;;;;;;4352286;60;21071;-36
2021/12/28 20:45:19;;;;;;;316.02;250.93;;;20.50;49.50;;;;;;4360722;60;21060;-36
2021/12/28 20:50:21;;;;;;;323.40;259.60;;;20.50;49.50;;;;;;4356837;60;21056;-36
2021/12/28 20:55:23;;;;;;;318.95;256.50;;;20.50;49.50;;;;;;4338989;64;21131;-35
2021/12/28 21:00:27;;;;;;;311.08;244.57;;;20.60;49.60;;;;;;4341006;60;21091;-35
2021/12/28 21:05:29;;;;;;;309.30;251.77;;;20.50;49.50;;;;;;4358763;60;22225;-34
2021/12/28 21:10:30;;;;;;;307.95;248.60;;;20.50;49.50;;;;;;4369340;60;21059;-35
2021/12/28 21:15:31;;;;;;;308.08;249.82;;;20.50;49.40;;;;;;4339291;61;21063;-32
2021/12/28 21:20:35;;;;;;;311.25;251.55;;;20.50;49.40;;;;;;4338251;61;21080;-35
2021/12/28 21:25:36;;;;;;;315.73;254.18;;;20.50;49.40;;;;;;4347493;60;21307;-36
2021/12/28 21:30:37;;;;;;;304.40;248.40;;;20.50;49.40;;;;;;4338956;64;21607;-35
2021/12/28 21:35:38;;;;;;;307.23;252.27;;;20.50;49.40;;;;;;4338742;64;21151;-38
2021/12/28 21:40:39;;;;;;;314.50;254.38;;;20.50;49.30;;;;;;4388763;60;21793;-38
2021/12/28 21:45:40;;;;;;;309.73;250.38;;;20.50;49.30;;;;;;4353990;60;21047;-35
2021/12/28 21:50:41;;;;;;;304.15;246.80;;;20.50;49.30;;;;;;4354414;60;21536;-35
2021/12/28 21:55:42;;;;;;;304.90;248.25;;;20.50;49.20;;;;;;4354624;60;21058;-36
2021/12/28 22:00:43;;;;;;;299.52;246.43;;;20.50;49.20;;;;;;4355247;60;21126;-36
2021/12/28 22:05:44;;;;;;;306.63;247.15;;;20.50;49.20;;;;;;4354691;60;21541;-37
2021/12/28 22:10:45;;;;;;;305.42;246.60;;;20.50;49.20;;;;;;4339900;60;21063;-37
2021/12/28 22:15:46;;;;;;;309.00;248.45;;;20.50;49.10;;;;;;4355315;60;21648;-35
2021/12/28 22:20:47;;;;;;;301.35;246.50;;;20.50;49.10;;;;;;4354346;60;21554;-36
2021/12/28 22:25:54;;;;;;;301.48;244.55;;;20.40;49.00;;;;;;4347041;60;21120;-36
2021/12/28 22:30:58;;;;;;;293.97;230.13;;;20.40;49.00;;;;;;4348008;60;21643;-36
2021/12/28 22:36:01;;;;;;;306.45;245.57;;;20.40;49.00;;;;;;4344601;60;21231;-36
2021/12/28 22:41:04;;;;;;;311.45;250.70;;;20.40;48.90;;;;;;4338469;64;21616;-36
2021/12/28 22:46:05;;;;;;;303.05;245.77;;;20.40;48.90;;;;;;4344472;60;21095;-36
2021/12/28 22:51:06;;;;;;;304.00;240.60;;;20.40;48.90;;;;;;4358314;60;21083;-36
2021/12/28 22:56:07;;;;;;;302.73;236.62;;;20.40;48.80;;;;;;4344287;60;21115;-36
2021/12/28 23:01:09;;;;;;;297.77;240.68;;;20.40;48.80;;;;;;4340502;60;21601;-37
2021/12/28 23:06:10;;;;;;;289.25;236.82;;;20.40;48.80;;;;;;4352192;60;21101;-35
2021/12/28 23:11:11;;;;;;;304.92;244.40;;;20.40;48.80;;;;;;4351474;60;21681;-37
2021/12/28 23:16:15;;;;;;;298.60;240.15;;;20.40;48.70;;;;;;4365331;60;21107;-35
2021/12/28 23:21:16;;;;;;;301.50;237.90;;;20.40;48.70;;;;;;4338835;64;21143;-36
2021/12/28 23:26:19;;;;;;;297.67;237.75;;;20.40;48.70;;;;;;4366123;60;21115;-36
2021/12/28 23:31:21;;;;;;;294.52;234.32;;;20.40;48.60;;;;;;4358834;60;22347;-36
2021/12/28 23:36:22;;;;;;;295.98;235.65;;;20.40;48.60;;;;;;4352388;60;22405;-37
2021/12/28 23:41:23;;;;;;;293.90;234.60;;;20.40;48.60;;;;;;4343155;60;21166;-35
2021/12/28 23:46:23;;;;;;;279.52;224.75;;;20.40;48.60;;;;;;4353570;60;22503;-36
2021/12/28 23:51:24;;;;;;;291.23;232.45;;;20.40;48.60;;;;;;4345869;60;21062;-36
2021/12/28 23:56:26;;;;;;;285.15;227.30;;;20.30;48.50;;;;;;4338635;64;21096;-36
